sensor_id;sensor_type;location;lat;lon;timestamp;P1;durP1;ratioP1;P2;durP2;ratioP2
11988;SDS011;6054;50.966;7.094;2022-12-11T00:01:18;36.50;;;21.63;;
11988;SDS011;6054;50.966;7.094;2022-12-11T00:03:46;43.40;;;23.13;;
11988;SDS011;6054;50.966;7.094;2022-12-11T00:06:15;34.83;;;19.60;;
11988;SDS011;6054;50.966;7.094;2022-12-11T00:08:43;36.50;;;21.73;;
11988;SDS011;6054;50.966;7.094;2022-12-11T00:11:10;37.93;;;20.87;;
11988;SDS011;6054;50.966;7.094;2022-12-11T00:13:39;38.63;;;21.33;;
11988;SDS011;6054;50.966;7.094;2022-12-11T00:16:05;34.70;;;21.20;;
11988;SDS011;6054;50.966;7.094;2022-12-11T00:18:34;36.13;;;20.80;;
11988;SDS011;6054;50.966;7.094;2022-12-11T00:21:01;32.07;;;20.07;;
11988;SDS011;6054;50.966;7.094;2022-12-11T00:23:30;32.00;;;19.70;;
11988;SDS011;6054;50.966;7.094;2022-12-11T00:25:57;32.47;;;19.27;;
11988;SDS011;6054;50.966;7.094;2022-12-11T00:28:24;32.43;;;19.90;;
11988;SDS011;6054;50.966;7.094;2022-12-11T00:30:50;36.03;;;20.10;;
11988;SDS011;6054;50.966;7.094;2022-12-11T00:33:17;32.93;;;19.67;;
11988;SDS011;6054;50.966;7.094;2022-12-11T00:35:45;33.17;;;19.37;;
11988;SDS011;6054;50.966;7.094;2022-12-11T00:38:14;40.07;;;21.40;;
11988;SDS011;6054;50.966;7.094;2022-12-11T00:40:42;40.07;;;22.03;;
11988;SDS011;6054;50.966;7.094;2022-12-11T00:43:09;32.30;;;20.30;;
11988;SDS011;6054;50.966;7.094;2022-12-11T00:45:36;35.23;;;20.07;;
11988;SDS011;6054;50.966;7.094;2022-12-11T00:48:04;37.43;;;19.80;;
11988;SDS011;6054;50.966;7.094;2022-12-11T00:50:31;35.27;;;19.73;;
11988;SDS011;6054;50.966;7.094;2022-12-11T00:52:59;33.77;;;19.30;;
11988;SDS011;6054;50.966;7.094;2022-12-11T00:55:26;33.17;;;19.53;;
11988;SDS011;6054;50.966;7.094;2022-12-11T00:57:53;38.87;;;22.30;;
11988;SDS011;6054;50.966;7.094;2022-12-11T01:00:21;34.67;;;20.03;;
11988;SDS011;6054;50.966;7.094;2022-12-11T01:02:48;33.43;;;19.07;;
11988;SDS011;6054;50.966;7.094;2022-12-11T01:05:15;33.63;;;19.63;;
11988;SDS011;6054;50.966;7.094;2022-12-11T01:07:42;31.33;;;19.27;;
11988;SDS011;6054;50.966;7.094;2022-12-11T01:10:10;33.97;;;19.13;;
11988;SDS011;6054;50.966;7.094;2022-12-11T01:12:50;34.40;;;19.50;;
11988;SDS011;6054;50.966;7.094;2022-12-11T01:15:17;36.00;;;19.13;;
11988;SDS011;6054;50.966;7.094;2022-12-11T01:17:45;31.63;;;19.30;;
11988;SDS011;6054;50.966;7.094;2022-12-11T01:20:11;39.33;;;20.60;;
11988;SDS011;6054;50.966;7.094;2022-12-11T01:22:38;38.50;;;19.87;;
11988;SDS011;6054;50.966;7.094;2022-12-11T01:25:05;45.60;;;20.67;;
11988;SDS011;6054;50.966;7.094;2022-12-11T01:27:35;46.53;;;22.33;;
11988;SDS011;6054;50.966;7.094;2022-12-11T01:30:03;47.90;;;21.43;;
11988;SDS011;6054;50.966;7.094;2022-12-11T01:32:31;48.23;;;22.13;;
11988;SDS011;6054;50.966;7.094;2022-12-11T01:34:59;47.73;;;21.60;;
11988;SDS011;6054;50.966;7.094;2022-12-11T01:37:27;48.67;;;21.17;;
11988;SDS011;6054;50.966;7.094;2022-12-11T01:39:54;46.80;;;21.53;;
11988;SDS011;6054;50.966;7.094;2022-12-11T01:42:21;47.07;;;21.83;;
11988;SDS011;6054;50.966;7.094;2022-12-11T01:45:15;52.57;;;22.10;;
11988;SDS011;6054;50.966;7.094;2022-12-11T01:47:50;47.17;;;21.50;;
11988;SDS011;6054;50.966;7.094;2022-12-11T01:50:20;49.80;;;21.30;;
11988;SDS011;6054;50.966;7.094;2022-12-11T01:52:47;42.83;;;21.50;;
11988;SDS011;6054;50.966;7.094;2022-12-11T01:55:15;46.17;;;20.50;;
11988;SDS011;6054;50.966;7.094;2022-12-11T01:57:43;42.97;;;21.20;;
11988;SDS011;6054;50.966;7.094;2022-12-11T02:00:15;53.63;;;22.60;;
11988;SDS011;6054;50.966;7.094;2022-12-11T02:02:42;58.63;;;22.40;;
11988;SDS011;6054;50.966;7.094;2022-12-11T02:05:10;65.97;;;23.80;;
11988;SDS011;6054;50.966;7.094;2022-12-11T02:07:38;54.00;;;22.07;;
11988;SDS011;6054;50.966;7.094;2022-12-11T02:10:08;56.70;;;24.27;;
11988;SDS011;6054;50.966;7.094;2022-12-11T02:12:38;61.70;;;23.67;;
11988;SDS011;6054;50.966;7.094;2022-12-11T02:15:11;63.20;;;24.90;;
11988;SDS011;6054;50.966;7.094;2022-12-11T02:17:45;66.00;;;24.63;;
11988;SDS011;6054;50.966;7.094;2022-12-11T02:20:14;59.63;;;24.03;;
11988;SDS011;6054;50.966;7.094;2022-12-11T02:26:02;66.90;;;23.87;;
11988;SDS011;6054;50.966;7.094;2022-12-11T02:28:37;69.33;;;24.93;;
11988;SDS011;6054;50.966;7.094;2022-12-11T02:31:08;66.83;;;24.93;;
11988;SDS011;6054;50.966;7.094;2022-12-11T02:33:38;76.43;;;26.17;;
11988;SDS011;6054;50.966;7.094;2022-12-11T02:36:09;67.57;;;25.00;;
11988;SDS011;6054;50.966;7.094;2022-12-11T02:38:39;67.47;;;26.23;;
11988;SDS011;6054;50.966;7.094;2022-12-11T02:41:10;70.33;;;25.93;;
11988;SDS011;6054;50.966;7.094;2022-12-11T02:43:39;66.07;;;25.47;;
11988;SDS011;6054;50.966;7.094;2022-12-11T02:46:07;67.73;;;27.50;;
11988;SDS011;6054;50.966;7.094;2022-12-11T02:48:35;60.90;;;24.37;;
11988;SDS011;6054;50.966;7.094;2022-12-11T02:51:04;57.67;;;25.10;;
11988;SDS011;6054;50.966;7.094;2022-12-11T02:53:34;55.00;;;24.03;;
11988;SDS011;6054;50.966;7.094;2022-12-11T02:56:06;52.47;;;22.13;;
11988;SDS011;6054;50.966;7.094;2022-12-11T02:58:36;52.60;;;22.03;;
11988;SDS011;6054;50.966;7.094;2022-12-11T03:01:10;52.30;;;22.80;;
11988;SDS011;6054;50.966;7.094;2022-12-11T03:03:37;52.93;;;22.37;;
11988;SDS011;6054;50.966;7.094;2022-12-11T03:06:04;46.63;;;20.50;;
11988;SDS011;6054;50.966;7.094;2022-12-11T03:08:31;44.60;;;20.03;;
11988;SDS011;6054;50.966;7.094;2022-12-11T03:10:58;47.30;;;20.50;;
11988;SDS011;6054;50.966;7.094;2022-12-11T03:13:25;50.33;;;20.97;;
11988;SDS011;6054;50.966;7.094;2022-12-11T03:15:57;45.13;;;20.37;;
11988;SDS011;6054;50.966;7.094;2022-12-11T03:18:33;48.50;;;22.27;;
11988;SDS011;6054;50.966;7.094;2022-12-11T03:21:05;48.53;;;22.30;;
11988;SDS011;6054;50.966;7.094;2022-12-11T03:23:41;51.77;;;22.23;;
11988;SDS011;6054;50.966;7.094;2022-12-11T03:26:14;43.33;;;19.60;;
11988;SDS011;6054;50.966;7.094;2022-12-11T03:28:44;48.13;;;21.93;;
11988;SDS011;6054;50.966;7.094;2022-12-11T03:31:17;46.17;;;20.93;;
11988;SDS011;6054;50.966;7.094;2022-12-11T03:33:48;43.33;;;19.60;;
11988;SDS011;6054;50.966;7.094;2022-12-11T03:36:23;43.40;;;20.27;;
11988;SDS011;6054;50.966;7.094;2022-12-11T03:38:53;45.43;;;20.70;;
11988;SDS011;6054;50.966;7.094;2022-12-11T03:41:23;41.93;;;20.40;;
11988;SDS011;6054;50.966;7.094;2022-12-11T03:43:53;44.20;;;19.53;;
11988;SDS011;6054;50.966;7.094;2022-12-11T03:46:24;50.90;;;20.87;;
11988;SDS011;6054;50.966;7.094;2022-12-11T03:48:55;46.13;;;19.63;;
11988;SDS011;6054;50.966;7.094;2022-12-11T03:51:26;51.03;;;21.03;;
11988;SDS011;6054;50.966;7.094;2022-12-11T03:53:54;49.07;;;20.13;;
11988;SDS011;6054;50.966;7.094;2022-12-11T03:56:21;47.13;;;20.80;;
11988;SDS011;6054;50.966;7.094;2022-12-11T03:58:50;46.67;;;21.47;;
11988;SDS011;6054;50.966;7.094;2022-12-11T04:03:47;49.70;;;20.90;;
11988;SDS011;6054;50.966;7.094;2022-12-11T04:06:13;49.07;;;20.70;;
11988;SDS011;6054;50.966;7.094;2022-12-11T04:08:40;50.53;;;21.30;;
11988;SDS011;6054;50.966;7.094;2022-12-11T04:11:07;48.13;;;21.33;;
11988;SDS011;6054;50.966;7.094;2022-12-11T04:13:52;49.50;;;21.63;;
11988;SDS011;6054;50.966;7.094;2022-12-11T04:16:33;54.17;;;22.07;;
11988;SDS011;6054;50.966;7.094;2022-12-11T04:19:01;54.03;;;22.07;;
11988;SDS011;6054;50.966;7.094;2022-12-11T04:21:46;53.43;;;21.97;;
11988;SDS011;6054;50.966;7.094;2022-12-11T04:24:30;52.03;;;22.70;;
11988;SDS011;6054;50.966;7.094;2022-12-11T04:26:57;55.00;;;22.93;;
11988;SDS011;6054;50.966;7.094;2022-12-11T04:29:24;54.13;;;22.77;;
11988;SDS011;6054;50.966;7.094;2022-12-11T04:31:50;48.77;;;23.70;;
11988;SDS011;6054;50.966;7.094;2022-12-11T04:34:19;53.23;;;23.23;;
11988;SDS011;6054;50.966;7.094;2022-12-11T04:36:45;51.70;;;21.53;;
11988;SDS011;6054;50.966;7.094;2022-12-11T04:39:12;53.90;;;21.70;;
11988;SDS011;6054;50.966;7.094;2022-12-11T04:41:39;51.27;;;22.57;;
11988;SDS011;6054;50.966;7.094;2022-12-11T04:44:06;51.40;;;23.20;;
11988;SDS011;6054;50.966;7.094;2022-12-11T04:46:34;50.73;;;21.47;;
11988;SDS011;6054;50.966;7.094;2022-12-11T04:49:01;52.47;;;22.17;;
11988;SDS011;6054;50.966;7.094;2022-12-11T04:51:29;52.53;;;21.60;;
11988;SDS011;6054;50.966;7.094;2022-12-11T04:53:56;46.90;;;20.67;;
11988;SDS011;6054;50.966;7.094;2022-12-11T04:56:24;51.47;;;21.87;;
11988;SDS011;6054;50.966;7.094;2022-12-11T04:58:50;50.53;;;21.37;;
11988;SDS011;6054;50.966;7.094;2022-12-11T05:01:18;52.47;;;22.27;;
11988;SDS011;6054;50.966;7.094;2022-12-11T05:03:47;46.83;;;21.60;;
11988;SDS011;6054;50.966;7.094;2022-12-11T05:06:14;48.33;;;21.17;;
11988;SDS011;6054;50.966;7.094;2022-12-11T05:08:42;48.63;;;21.73;;
11988;SDS011;6054;50.966;7.094;2022-12-11T05:11:11;48.67;;;22.30;;
11988;SDS011;6054;50.966;7.094;2022-12-11T05:13:39;47.77;;;21.77;;
11988;SDS011;6054;50.966;7.094;2022-12-11T05:16:07;51.53;;;22.17;;
11988;SDS011;6054;50.966;7.094;2022-12-11T05:18:35;51.13;;;20.93;;
11988;SDS011;6054;50.966;7.094;2022-12-11T05:21:03;48.43;;;21.07;;
11988;SDS011;6054;50.966;7.094;2022-12-11T05:23:32;52.97;;;20.37;;
11988;SDS011;6054;50.966;7.094;2022-12-11T05:26:01;48.03;;;19.70;;
11988;SDS011;6054;50.966;7.094;2022-12-11T05:28:31;41.17;;;18.60;;
11988;SDS011;6054;50.966;7.094;2022-12-11T05:31:00;42.13;;;19.70;;
11988;SDS011;6054;50.966;7.094;2022-12-11T05:33:28;51.90;;;20.73;;
11988;SDS011;6054;50.966;7.094;2022-12-11T05:35:55;46.87;;;20.93;;
11988;SDS011;6054;50.966;7.094;2022-12-11T05:38:23;40.63;;;19.50;;
11988;SDS011;6054;50.966;7.094;2022-12-11T05:40:54;48.53;;;21.27;;
11988;SDS011;6054;50.966;7.094;2022-12-11T05:43:23;47.50;;;20.40;;
11988;SDS011;6054;50.966;7.094;2022-12-11T05:45:50;46.60;;;21.43;;
11988;SDS011;6054;50.966;7.094;2022-12-11T05:48:17;46.37;;;19.90;;
11988;SDS011;6054;50.966;7.094;2022-12-11T05:50:43;46.87;;;21.30;;
11988;SDS011;6054;50.966;7.094;2022-12-11T05:53:10;49.07;;;22.63;;
11988;SDS011;6054;50.966;7.094;2022-12-11T05:55:37;53.70;;;22.83;;
11988;SDS011;6054;50.966;7.094;2022-12-11T05:58:04;42.40;;;20.47;;
11988;SDS011;6054;50.966;7.094;2022-12-11T06:00:32;42.37;;;20.53;;
11988;SDS011;6054;50.966;7.094;2022-12-11T06:02:59;48.57;;;22.33;;
11988;SDS011;6054;50.966;7.094;2022-12-11T06:05:25;44.53;;;19.77;;
11988;SDS011;6054;50.966;7.094;2022-12-11T06:07:52;43.73;;;19.77;;
11988;SDS011;6054;50.966;7.094;2022-12-11T06:10:19;41.97;;;19.37;;
11988;SDS011;6054;50.966;7.094;2022-12-11T06:12:45;46.83;;;21.37;;
11988;SDS011;6054;50.966;7.094;2022-12-11T06:15:12;43.37;;;19.17;;
11988;SDS011;6054;50.966;7.094;2022-12-11T06:17:40;42.77;;;19.50;;
11988;SDS011;6054;50.966;7.094;2022-12-11T06:20:07;43.67;;;20.43;;
11988;SDS011;6054;50.966;7.094;2022-12-11T06:22:34;44.47;;;19.97;;
11988;SDS011;6054;50.966;7.094;2022-12-11T06:25:01;44.30;;;20.20;;
11988;SDS011;6054;50.966;7.094;2022-12-11T06:27:28;45.33;;;20.07;;
11988;SDS011;6054;50.966;7.094;2022-12-11T06:29:55;47.23;;;20.70;;
11988;SDS011;6054;50.966;7.094;2022-12-11T06:32:21;44.73;;;21.37;;
11988;SDS011;6054;50.966;7.094;2022-12-11T06:34:49;42.97;;;19.90;;
11988;SDS011;6054;50.966;7.094;2022-12-11T06:37:16;40.57;;;19.13;;
11988;SDS011;6054;50.966;7.094;2022-12-11T06:39:43;42.13;;;19.57;;
11988;SDS011;6054;50.966;7.094;2022-12-11T06:42:10;48.70;;;20.37;;
11988;SDS011;6054;50.966;7.094;2022-12-11T06:44:37;44.63;;;20.33;;
11988;SDS011;6054;50.966;7.094;2022-12-11T06:47:04;39.70;;;18.93;;
11988;SDS011;6054;50.966;7.094;2022-12-11T06:49:30;45.57;;;20.43;;
11988;SDS011;6054;50.966;7.094;2022-12-11T06:51:59;42.57;;;19.93;;
11988;SDS011;6054;50.966;7.094;2022-12-11T06:54:25;43.37;;;19.77;;
11988;SDS011;6054;50.966;7.094;2022-12-11T06:56:52;46.00;;;20.53;;
11988;SDS011;6054;50.966;7.094;2022-12-11T06:59:19;44.10;;;19.87;;
11988;SDS011;6054;50.966;7.094;2022-12-11T07:01:46;44.50;;;18.97;;
11988;SDS011;6054;50.966;7.094;2022-12-11T07:04:12;42.43;;;19.43;;
11988;SDS011;6054;50.966;7.094;2022-12-11T07:06:39;42.60;;;20.37;;
11988;SDS011;6054;50.966;7.094;2022-12-11T07:09:07;43.40;;;21.23;;
11988;SDS011;6054;50.966;7.094;2022-12-11T07:11:35;43.30;;;19.67;;
11988;SDS011;6054;50.966;7.094;2022-12-11T07:14:01;40.10;;;20.30;;
11988;SDS011;6054;50.966;7.094;2022-12-11T07:16:28;41.17;;;20.27;;
11988;SDS011;6054;50.966;7.094;2022-12-11T07:18:55;45.60;;;19.70;;
11988;SDS011;6054;50.966;7.094;2022-12-11T07:21:22;47.53;;;20.53;;
11988;SDS011;6054;50.966;7.094;2022-12-11T07:23:48;46.03;;;20.77;;
11988;SDS011;6054;50.966;7.094;2022-12-11T07:26:18;48.93;;;21.63;;
11988;SDS011;6054;50.966;7.094;2022-12-11T07:28:46;41.53;;;20.27;;
11988;SDS011;6054;50.966;7.094;2022-12-11T07:31:13;49.87;;;20.23;;
11988;SDS011;6054;50.966;7.094;2022-12-11T07:33:41;39.10;;;18.63;;
11988;SDS011;6054;50.966;7.094;2022-12-11T07:36:09;46.17;;;20.83;;
11988;SDS011;6054;50.966;7.094;2022-12-11T07:38:37;39.33;;;18.77;;
11988;SDS011;6054;50.966;7.094;2022-12-11T07:41:05;46.60;;;21.03;;
11988;SDS011;6054;50.966;7.094;2022-12-11T07:43:34;48.13;;;21.20;;
11988;SDS011;6054;50.966;7.094;2022-12-11T07:46:02;47.60;;;21.10;;
11988;SDS011;6054;50.966;7.094;2022-12-11T07:48:29;48.03;;;20.57;;
11988;SDS011;6054;50.966;7.094;2022-12-11T07:51:06;46.70;;;20.23;;
11988;SDS011;6054;50.966;7.094;2022-12-11T07:53:33;48.67;;;20.33;;
11988;SDS011;6054;50.966;7.094;2022-12-11T07:56:00;43.57;;;20.60;;
11988;SDS011;6054;50.966;7.094;2022-12-11T07:58:27;45.93;;;20.70;;
11988;SDS011;6054;50.966;7.094;2022-12-11T08:00:55;51.37;;;22.23;;
11988;SDS011;6054;50.966;7.094;2022-12-11T08:03:22;46.27;;;21.43;;
11988;SDS011;6054;50.966;7.094;2022-12-11T08:05:49;48.90;;;22.40;;
11988;SDS011;6054;50.966;7.094;2022-12-11T08:08:17;46.10;;;21.43;;
11988;SDS011;6054;50.966;7.094;2022-12-11T08:10:45;45.50;;;21.13;;
11988;SDS011;6054;50.966;7.094;2022-12-11T08:13:11;46.60;;;21.70;;
11988;SDS011;6054;50.966;7.094;2022-12-11T08:15:39;47.87;;;21.20;;
11988;SDS011;6054;50.966;7.094;2022-12-11T08:18:07;42.50;;;20.83;;
11988;SDS011;6054;50.966;7.094;2022-12-11T08:20:36;46.13;;;22.07;;
11988;SDS011;6054;50.966;7.094;2022-12-11T08:23:03;50.20;;;21.47;;
11988;SDS011;6054;50.966;7.094;2022-12-11T08:25:30;49.77;;;21.17;;
11988;SDS011;6054;50.966;7.094;2022-12-11T08:27:57;49.73;;;21.43;;
11988;SDS011;6054;50.966;7.094;2022-12-11T08:30:23;45.63;;;22.00;;
11988;SDS011;6054;50.966;7.094;2022-12-11T08:32:50;47.43;;;22.50;;
11988;SDS011;6054;50.966;7.094;2022-12-11T08:35:18;46.93;;;20.83;;
11988;SDS011;6054;50.966;7.094;2022-12-11T08:37:45;44.43;;;19.97;;
11988;SDS011;6054;50.966;7.094;2022-12-11T08:40:12;47.50;;;21.77;;
11988;SDS011;6054;50.966;7.094;2022-12-11T08:42:39;43.83;;;20.80;;
11988;SDS011;6054;50.966;7.094;2022-12-11T08:45:06;46.57;;;21.73;;
11988;SDS011;6054;50.966;7.094;2022-12-11T08:47:33;44.60;;;22.13;;
11988;SDS011;6054;50.966;7.094;2022-12-11T08:50:00;45.33;;;22.17;;
11988;SDS011;6054;50.966;7.094;2022-12-11T08:52:28;45.27;;;22.20;;
11988;SDS011;6054;50.966;7.094;2022-12-11T08:54:55;52.10;;;22.43;;
11988;SDS011;6054;50.966;7.094;2022-12-11T08:57:22;47.23;;;21.60;;
11988;SDS011;6054;50.966;7.094;2022-12-11T08:59:49;45.10;;;20.97;;
11988;SDS011;6054;50.966;7.094;2022-12-11T09:02:15;45.67;;;22.10;;
11988;SDS011;6054;50.966;7.094;2022-12-11T09:04:42;43.77;;;21.10;;
11988;SDS011;6054;50.966;7.094;2022-12-11T09:07:09;48.97;;;23.50;;
11988;SDS011;6054;50.966;7.094;2022-12-11T09:09:37;47.47;;;21.53;;
11988;SDS011;6054;50.966;7.094;2022-12-11T09:12:04;56.50;;;23.00;;
11988;SDS011;6054;50.966;7.094;2022-12-11T09:14:31;50.50;;;22.20;;
11988;SDS011;6054;50.966;7.094;2022-12-11T09:16:58;49.90;;;22.03;;
11988;SDS011;6054;50.966;7.094;2022-12-11T09:19:25;51.20;;;23.77;;
11988;SDS011;6054;50.966;7.094;2022-12-11T09:21:51;52.77;;;23.87;;
11988;SDS011;6054;50.966;7.094;2022-12-11T09:24:18;48.90;;;22.43;;
11988;SDS011;6054;50.966;7.094;2022-12-11T09:26:46;46.93;;;23.17;;
11988;SDS011;6054;50.966;7.094;2022-12-11T09:29:13;50.37;;;21.90;;
11988;SDS011;6054;50.966;7.094;2022-12-11T09:31:40;51.50;;;21.73;;
11988;SDS011;6054;50.966;7.094;2022-12-11T09:34:09;53.30;;;23.83;;
11988;SDS011;6054;50.966;7.094;2022-12-11T09:36:37;45.50;;;21.13;;
11988;SDS011;6054;50.966;7.094;2022-12-11T09:39:06;49.17;;;22.47;;
11988;SDS011;6054;50.966;7.094;2022-12-11T09:41:36;55.40;;;22.80;;
11988;SDS011;6054;50.966;7.094;2022-12-11T09:44:16;54.20;;;23.60;;
11988;SDS011;6054;50.966;7.094;2022-12-11T09:46:49;47.97;;;22.37;;
11988;SDS011;6054;50.966;7.094;2022-12-11T09:49:21;57.17;;;23.43;;
11988;SDS011;6054;50.966;7.094;2022-12-11T09:51:56;55.40;;;23.57;;
11988;SDS011;6054;50.966;7.094;2022-12-11T09:54:30;55.77;;;23.43;;
11988;SDS011;6054;50.966;7.094;2022-12-11T09:57:01;52.20;;;23.70;;
11988;SDS011;6054;50.966;7.094;2022-12-11T09:59:36;50.23;;;22.53;;
11988;SDS011;6054;50.966;7.094;2022-12-11T10:02:17;67.40;;;28.83;;
11988;SDS011;6054;50.966;7.094;2022-12-11T10:04:52;54.13;;;22.53;;
11988;SDS011;6054;50.966;7.094;2022-12-11T10:07:29;58.70;;;26.97;;
11988;SDS011;6054;50.966;7.094;2022-12-11T10:10:02;57.67;;;24.53;;
11988;SDS011;6054;50.966;7.094;2022-12-11T10:12:39;58.97;;;25.27;;
11988;SDS011;6054;50.966;7.094;2022-12-11T10:15:15;59.23;;;25.60;;
11988;SDS011;6054;50.966;7.094;2022-12-11T10:17:52;59.53;;;25.37;;
11988;SDS011;6054;50.966;7.094;2022-12-11T10:20:21;65.13;;;28.67;;
11988;SDS011;6054;50.966;7.094;2022-12-11T10:22:51;59.53;;;24.93;;
11988;SDS011;6054;50.966;7.094;2022-12-11T10:25:20;69.40;;;26.80;;
11988;SDS011;6054;50.966;7.094;2022-12-11T10:27:50;69.87;;;31.47;;
11988;SDS011;6054;50.966;7.094;2022-12-11T10:30:19;71.97;;;27.80;;
11988;SDS011;6054;50.966;7.094;2022-12-11T10:32:50;68.43;;;27.80;;
11988;SDS011;6054;50.966;7.094;2022-12-11T10:35:25;70.53;;;29.57;;
11988;SDS011;6054;50.966;7.094;2022-12-11T10:38:00;153.93;;;63.73;;
11988;SDS011;6054;50.966;7.094;2022-12-11T10:40:36;70.27;;;32.53;;
11988;SDS011;6054;50.966;7.094;2022-12-11T10:43:04;66.77;;;26.27;;
11988;SDS011;6054;50.966;7.094;2022-12-11T10:45:32;76.23;;;32.60;;
11988;SDS011;6054;50.966;7.094;2022-12-11T10:48:02;66.10;;;29.20;;
11988;SDS011;6054;50.966;7.094;2022-12-11T10:50:30;51.67;;;21.13;;
11988;SDS011;6054;50.966;7.094;2022-12-11T10:52:58;55.53;;;26.13;;
11988;SDS011;6054;50.966;7.094;2022-12-11T10:55:26;50.17;;;22.37;;
11988;SDS011;6054;50.966;7.094;2022-12-11T10:57:56;50.40;;;22.20;;
11988;SDS011;6054;50.966;7.094;2022-12-11T11:00:28;49.97;;;20.27;;
11988;SDS011;6054;50.966;7.094;2022-12-11T11:02:59;48.47;;;21.07;;
11988;SDS011;6054;50.966;7.094;2022-12-11T11:05:27;47.33;;;22.43;;
11988;SDS011;6054;50.966;7.094;2022-12-11T11:08:03;57.50;;;25.53;;
11988;SDS011;6054;50.966;7.094;2022-12-11T11:10:37;52.50;;;21.47;;
11988;SDS011;6054;50.966;7.094;2022-12-11T11:13:15;49.13;;;22.07;;
11988;SDS011;6054;50.966;7.094;2022-12-11T11:15:42;59.03;;;23.63;;
11988;SDS011;6054;50.966;7.094;2022-12-11T11:18:11;57.43;;;25.20;;
11988;SDS011;6054;50.966;7.094;2022-12-11T11:20:47;49.87;;;22.73;;
11988;SDS011;6054;50.966;7.094;2022-12-11T11:23:14;48.53;;;21.63;;
11988;SDS011;6054;50.966;7.094;2022-12-11T11:25:48;50.00;;;21.63;;
11988;SDS011;6054;50.966;7.094;2022-12-11T11:28:17;49.77;;;22.97;;
11988;SDS011;6054;50.966;7.094;2022-12-11T11:30:58;47.50;;;21.77;;
11988;SDS011;6054;50.966;7.094;2022-12-11T11:33:28;48.30;;;20.27;;
11988;SDS011;6054;50.966;7.094;2022-12-11T11:35:57;44.53;;;22.03;;
11988;SDS011;6054;50.966;7.094;2022-12-11T11:38:27;47.37;;;21.60;;
11988;SDS011;6054;50.966;7.094;2022-12-11T11:40:59;41.57;;;19.13;;
11988;SDS011;6054;50.966;7.094;2022-12-11T11:43:37;44.70;;;21.20;;
11988;SDS011;6054;50.966;7.094;2022-12-11T11:46:11;44.83;;;20.07;;
11988;SDS011;6054;50.966;7.094;2022-12-11T11:48:50;45.10;;;19.57;;
11988;SDS011;6054;50.966;7.094;2022-12-11T11:51:25;43.60;;;19.53;;
11988;SDS011;6054;50.966;7.094;2022-12-11T11:53:57;45.00;;;20.43;;
11988;SDS011;6054;50.966;7.094;2022-12-11T11:56:26;43.20;;;20.73;;
11988;SDS011;6054;50.966;7.094;2022-12-11T11:59:00;41.67;;;19.70;;
11988;SDS011;6054;50.966;7.094;2022-12-11T12:01:32;39.03;;;18.90;;
11988;SDS011;6054;50.966;7.094;2022-12-11T12:04:01;38.50;;;18.93;;
11988;SDS011;6054;50.966;7.094;2022-12-11T12:06:32;38.47;;;18.10;;
11988;SDS011;6054;50.966;7.094;2022-12-11T12:09:13;36.87;;;17.03;;
11988;SDS011;6054;50.966;7.094;2022-12-11T12:11:48;36.47;;;17.03;;
11988;SDS011;6054;50.966;7.094;2022-12-11T12:14:23;40.80;;;20.40;;
11988;SDS011;6054;50.966;7.094;2022-12-11T12:16:57;34.87;;;16.73;;
11988;SDS011;6054;50.966;7.094;2022-12-11T12:19:40;38.20;;;19.23;;
11988;SDS011;6054;50.966;7.094;2022-12-11T12:22:14;42.70;;;20.53;;
11988;SDS011;6054;50.966;7.094;2022-12-11T12:24:54;37.57;;;17.87;;
11988;SDS011;6054;50.966;7.094;2022-12-11T12:27:29;38.17;;;18.27;;
11988;SDS011;6054;50.966;7.094;2022-12-11T12:30:03;34.97;;;17.33;;
11988;SDS011;6054;50.966;7.094;2022-12-11T12:32:38;35.33;;;17.93;;
11988;SDS011;6054;50.966;7.094;2022-12-11T12:35:19;36.60;;;16.97;;
11988;SDS011;6054;50.966;7.094;2022-12-11T12:38:01;34.20;;;15.80;;
11988;SDS011;6054;50.966;7.094;2022-12-11T12:40:37;38.80;;;18.07;;
11988;SDS011;6054;50.966;7.094;2022-12-11T12:43:20;38.37;;;18.33;;
11988;SDS011;6054;50.966;7.094;2022-12-11T12:46:04;40.50;;;19.97;;
11988;SDS011;6054;50.966;7.094;2022-12-11T12:48:41;36.83;;;17.83;;
11988;SDS011;6054;50.966;7.094;2022-12-11T12:51:10;38.80;;;16.63;;
11988;SDS011;6054;50.966;7.094;2022-12-11T12:53:39;33.00;;;16.30;;
11988;SDS011;6054;50.966;7.094;2022-12-11T12:56:11;34.20;;;16.93;;
11988;SDS011;6054;50.966;7.094;2022-12-11T12:58:40;33.10;;;16.10;;
11988;SDS011;6054;50.966;7.094;2022-12-11T13:01:09;37.70;;;17.30;;
11988;SDS011;6054;50.966;7.094;2022-12-11T13:03:48;35.60;;;17.23;;
11988;SDS011;6054;50.966;7.094;2022-12-11T13:06:28;30.57;;;15.17;;
11988;SDS011;6054;50.966;7.094;2022-12-11T13:09:08;28.40;;;14.43;;
11988;SDS011;6054;50.966;7.094;2022-12-11T13:11:37;34.57;;;16.07;;
11988;SDS011;6054;50.966;7.094;2022-12-11T13:14:04;32.40;;;16.07;;
11988;SDS011;6054;50.966;7.094;2022-12-11T13:16:46;28.90;;;14.70;;
11988;SDS011;6054;50.966;7.094;2022-12-11T13:19:15;30.50;;;15.40;;
11988;SDS011;6054;50.966;7.094;2022-12-11T13:21:53;30.73;;;16.20;;
11988;SDS011;6054;50.966;7.094;2022-12-11T13:24:23;32.00;;;15.67;;
11988;SDS011;6054;50.966;7.094;2022-12-11T13:26:52;29.30;;;14.83;;
11988;SDS011;6054;50.966;7.094;2022-12-11T13:29:29;33.73;;;15.23;;
11988;SDS011;6054;50.966;7.094;2022-12-11T13:31:58;32.60;;;16.33;;
11988;SDS011;6054;50.966;7.094;2022-12-11T13:34:27;31.60;;;16.17;;
11988;SDS011;6054;50.966;7.094;2022-12-11T13:36:59;29.50;;;14.40;;
11988;SDS011;6054;50.966;7.094;2022-12-11T13:39:28;28.53;;;15.50;;
11988;SDS011;6054;50.966;7.094;2022-12-11T13:41:56;31.23;;;14.87;;
11988;SDS011;6054;50.966;7.094;2022-12-11T13:44:27;29.53;;;13.33;;
11988;SDS011;6054;50.966;7.094;2022-12-11T13:46:57;31.90;;;14.00;;
11988;SDS011;6054;50.966;7.094;2022-12-11T13:49:25;27.07;;;14.43;;
11988;SDS011;6054;50.966;7.094;2022-12-11T13:51:56;33.33;;;15.07;;
11988;SDS011;6054;50.966;7.094;2022-12-11T13:54:25;31.30;;;14.80;;
11988;SDS011;6054;50.966;7.094;2022-12-11T13:56:54;30.30;;;15.33;;
11988;SDS011;6054;50.966;7.094;2022-12-11T13:59:25;28.77;;;14.67;;
11988;SDS011;6054;50.966;7.094;2022-12-11T14:01:55;28.83;;;13.20;;
11988;SDS011;6054;50.966;7.094;2022-12-11T14:04:25;29.80;;;15.00;;
11988;SDS011;6054;50.966;7.094;2022-12-11T14:06:53;33.47;;;16.43;;
11988;SDS011;6054;50.966;7.094;2022-12-11T14:09:23;33.07;;;15.73;;
11988;SDS011;6054;50.966;7.094;2022-12-11T14:11:52;32.83;;;15.83;;
11988;SDS011;6054;50.966;7.094;2022-12-11T14:14:21;29.40;;;14.00;;
11988;SDS011;6054;50.966;7.094;2022-12-11T14:16:50;30.13;;;13.67;;
11988;SDS011;6054;50.966;7.094;2022-12-11T14:19:18;29.30;;;14.33;;
11988;SDS011;6054;50.966;7.094;2022-12-11T14:21:53;28.03;;;14.00;;
11988;SDS011;6054;50.966;7.094;2022-12-11T14:24:23;31.00;;;15.17;;
11988;SDS011;6054;50.966;7.094;2022-12-11T14:26:50;28.80;;;14.63;;
11988;SDS011;6054;50.966;7.094;2022-12-11T14:29:22;33.17;;;16.70;;
11988;SDS011;6054;50.966;7.094;2022-12-11T14:31:50;31.37;;;14.77;;
11988;SDS011;6054;50.966;7.094;2022-12-11T14:34:19;30.80;;;14.93;;
11988;SDS011;6054;50.966;7.094;2022-12-11T14:36:50;28.70;;;14.73;;
11988;SDS011;6054;50.966;7.094;2022-12-11T14:39:18;30.30;;;15.03;;
11988;SDS011;6054;50.966;7.094;2022-12-11T14:41:53;27.47;;;13.83;;
11988;SDS011;6054;50.966;7.094;2022-12-11T14:44:26;28.53;;;15.10;;
11988;SDS011;6054;50.966;7.094;2022-12-11T14:46:57;28.17;;;14.63;;
11988;SDS011;6054;50.966;7.094;2022-12-11T14:49:28;30.60;;;15.07;;
11988;SDS011;6054;50.966;7.094;2022-12-11T14:52:12;31.47;;;14.70;;
11988;SDS011;6054;50.966;7.094;2022-12-11T14:54:45;32.67;;;15.10;;